Time;durP1;ratioP1;P1;durP2;ratioP2;P2;SDS_P1;SDS_P2;PMS_P1;PMS_P2;Temp;Humidity;BMP_temperature;BMP_pressure;BME280_temperature;BME280_humidity;BME280_pressure;Samples;Min_cycle;Max_cycle;Signal;HPM_P1;HPM_P2
2021/08/12 00:01:16;;;;;;;16.48;12.68;;;20.50;74.80;;;;;;5096256;28;20040;-72
2021/08/12 00:03:43;;;;;;;17.27;13.32;;;20.60;74.80;;;;;;5078319;28;20055;-72
2021/08/12 00:06:09;;;;;;;15.80;12.82;;;20.50;74.80;;;;;;5075787;28;20047;-71
2021/08/12 00:08:35;;;;;;;15.70;13.05;;;20.60;74.90;;;;;;5075764;28;20406;-72
2021/08/12 00:11:00;;;;;;;18.38;13.77;;;20.50;74.90;;;;;;5076074;28;20417;-72
2021/08/12 00:13:26;;;;;;;16.75;13.77;;;20.60;75.00;;;;;;5075437;28;20051;-72
2021/08/12 00:15:52;;;;;;;18.77;13.40;;;20.50;75.00;;;;;;5075666;28;20037;-72
2021/08/12 00:18:18;;;;;;;18.83;14.05;;;20.50;75.00;;;;;;5075714;28;20048;-72
2021/08/12 00:20:44;;;;;;;15.63;13.38;;;20.50;75.00;;;;;;5075582;28;20439;-72
2021/08/12 00:23:10;;;;;;;18.70;13.45;;;20.50;75.00;;;;;;5075796;28;20068;-72
2021/08/12 00:25:36;;;;;;;17.02;14.10;;;20.50;75.10;;;;;;5075805;28;20083;-72
2021/08/12 00:28:02;;;;;;;15.85;13.35;;;20.50;75.10;;;;;;5075383;28;20102;-72
2021/08/12 00:30:28;;;;;;;16.25;13.93;;;20.50;75.20;;;;;;5075576;28;20162;-72
2021/08/12 00:32:54;;;;;;;19.52;13.85;;;20.50;75.20;;;;;;5085276;28;20438;-72
2021/08/12 00:35:20;;;;;;;16.50;13.45;;;20.50;75.20;;;;;;5096010;28;20035;-72
2021/08/12 00:37:46;;;;;;;18.13;14.60;;;20.50;75.20;;;;;;5095805;28;20131;-72
2021/08/12 00:40:13;;;;;;;16.77;13.40;;;20.50;75.20;;;;;;5095500;28;20067;-70
2021/08/12 00:42:38;;;;;;;17.92;13.88;;;20.50;75.20;;;;;;5095435;28;20036;-73
2021/08/12 00:45:05;;;;;;;16.95;14.18;;;20.40;75.10;;;;;;5095710;28;20347;-73
2021/08/12 00:47:31;;;;;;;16.90;13.50;;;20.40;75.10;;;;;;5095156;28;20075;-72
2021/08/12 00:49:56;;;;;;;16.10;13.82;;;20.40;75.10;;;;;;5095472;28;20063;-72
2021/08/12 00:52:23;;;;;;;14.63;12.45;;;20.40;75.10;;;;;;5095677;28;20512;-73
2021/08/12 00:54:49;;;;;;;17.40;13.93;;;20.40;75.10;;;;;;5094615;28;20040;-71
2021/08/12 00:57:19;;;;;;;14.32;12.00;;;20.40;75.10;;;;;;5095475;28;20105;-72
2021/08/12 00:59:45;;;;;;;18.88;13.77;;;20.40;75.10;;;;;;5095476;28;20043;-71
2021/08/12 01:02:12;;;;;;;17.33;14.40;;;20.40;75.10;;;;;;5087848;28;20040;-72
2021/08/12 01:04:41;;;;;;;15.65;13.00;;;20.40;75.30;;;;;;5075261;28;20448;-70
2021/08/12 01:07:32;;;;;;;15.32;13.07;;;20.40;75.10;;;;;;5074787;28;20040;-72
2021/08/12 01:10:17;;;;;;;18.80;13.80;;;20.40;75.10;;;;;;5074828;28;20040;-73
2021/08/12 01:13:09;;;;;;;16.15;12.57;;;20.40;75.10;;;;;;5075175;28;20048;-72
2021/08/12 01:15:41;;;;;;;18.60;13.60;;;20.40;75.10;;;;;;5075269;28;20177;-72
2021/08/12 01:18:19;;;;;;;15.68;13.40;;;20.40;75.10;;;;;;5074753;28;20094;-71
2021/08/12 01:21:14;;;;;;;15.90;13.82;;;20.40;75.10;;;;;;5075060;28;20101;-71
2021/08/12 01:23:41;;;;;;;14.80;13.27;;;20.40;75.00;;;;;;4989840;28;20385;-71
2021/08/12 01:26:09;;;;;;;17.67;14.70;;;20.30;75.00;;;;;;5075174;28;20063;-73
2021/08/12 01:28:43;;;;;;;17.38;14.27;;;20.30;75.70;;;;;;5074872;28;20098;-71
2021/08/12 01:31:40;;;;;;;17.23;14.23;;;20.40;75.10;;;;;;5074778;28;20054;-71
2021/08/12 01:34:08;;;;;;;17.02;13.90;;;20.40;75.00;;;;;;5066528;28;20056;-72
2021/08/12 01:36:37;;;;;;;17.83;13.63;;;20.30;75.10;;;;;;5074593;28;20050;-71
2021/08/12 01:39:06;;;;;;;16.35;14.15;;;20.30;75.10;;;;;;5074570;28;20436;-73
2021/08/12 01:41:32;;;;;;;16.00;14.20;;;20.30;75.10;;;;;;5074713;28;20107;-71
2021/08/12 01:44:00;;;;;;;18.88;13.30;;;20.30;75.10;;;;;;5075365;28;20040;-71
2021/08/12 01:46:27;;;;;;;16.95;13.57;;;20.30;75.00;;;;;;5074785;28;20045;-70
2021/08/12 01:48:55;;;;;;;17.05;13.70;;;20.30;75.10;;;;;;5074512;28;20123;-72
2021/08/12 01:51:26;;;;;;;16.08;14.35;;;20.30;75.10;;;;;;5074799;28;20309;-72
2021/08/12 01:53:52;;;;;;;18.17;14.13;;;20.30;75.10;;;;;;5083272;28;20055;-72
2021/08/12 01:56:19;;;;;;;18.27;14.00;;;20.20;75.00;;;;;;5094478;28;20446;-73
2021/08/12 01:58:47;;;;;;;14.70;13.18;;;20.30;75.10;;;;;;5096122;28;20040;-72
2021/08/12 02:01:13;;;;;;;17.10;14.18;;;20.20;75.10;;;;;;5098787;28;20044;-71
2021/08/12 02:03:41;;;;;;;20.65;13.90;;;20.20;75.10;;;;;;5098321;28;20486;-70
2021/08/12 02:06:09;;;;;;;15.35;13.10;;;20.20;75.10;;;;;;5098651;28;20051;-72
2021/08/12 02:08:35;;;;;;;16.02;12.27;;;20.20;75.20;;;;;;5098169;28;20040;-71
2021/08/12 02:11:01;;;;;;;15.77;13.27;;;20.20;75.20;;;;;;5098486;28;20047;-71
2021/08/12 02:13:28;;;;;;;15.27;11.85;;;20.20;75.30;;;;;;5098056;28;20040;-71
2021/08/12 02:15:54;;;;;;;13.73;12.02;;;20.20;75.30;;;;;;5098427;28;20123;-74
2021/08/12 02:18:20;;;;;;;13.70;12.27;;;20.20;75.30;;;;;;5098188;28;20036;-72
2021/08/12 02:20:56;;;;;;;16.58;11.70;;;20.20;75.30;;;;;;5098675;28;20050;-71
2021/08/12 02:23:30;;;;;;;14.13;12.02;;;20.20;75.30;;;;;;5094099;28;20032;-73
2021/08/12 02:26:18;;;;;;;15.45;12.32;;;20.20;75.40;;;;;;5077800;28;20104;-71
2021/08/12 02:28:45;;;;;;;15.55;12.80;;;20.20;75.30;;;;;;5077587;28;20075;-72
2021/08/12 02:31:15;;;;;;;13.95;12.25;;;20.20;75.40;;;;;;5077965;28;20070;-71
2021/08/12 02:33:44;;;;;;;13.43;12.02;;;20.20;75.40;;;;;;5077752;28;20047;-72
2021/08/12 02:36:10;;;;;;;14.57;12.15;;;20.10;75.30;;;;;;5059769;28;20491;-70
2021/08/12 02:38:39;;;;;;;13.90;12.48;;;20.10;75.30;;;;;;5077789;28;20115;-73
2021/08/12 02:41:07;;;;;;;15.60;12.48;;;20.10;75.40;;;;;;5077761;28;20317;-72
2021/08/12 02:43:38;;;;;;;13.13;11.00;;;20.10;75.40;;;;;;5077724;28;20063;-72
2021/08/12 02:46:06;;;;;;;13.70;11.18;;;20.10;75.40;;;;;;5077451;28;20120;-71
2021/08/12 02:48:33;;;;;;;13.25;11.85;;;20.10;75.40;;;;;;5077638;28;20117;-71
2021/08/12 02:51:01;;;;;;;13.00;11.60;;;20.10;75.50;;;;;;5077531;28;20044;-72
2021/08/12 02:53:29;;;;;;;15.90;13.13;;;20.10;75.50;;;;;;5084300;28;20042;-72
2021/08/12 02:55:56;;;;;;;14.63;12.10;;;20.10;75.60;;;;;;5097223;28;20044;-72
2021/08/12 02:58:24;;;;;;;15.85;12.82;;;20.10;75.60;;;;;;5098037;28;20040;-72
2021/08/12 03:00:51;;;;;;;14.75;11.93;;;20.10;75.60;;;;;;5095800;28;20051;-71
2021/08/12 03:03:21;;;;;;;14.52;12.23;;;20.10;75.60;;;;;;5097595;28;20083;-72
2021/08/12 03:05:48;;;;;;;15.05;11.95;;;20.10;75.60;;;;;;5097501;28;20423;-70
2021/08/12 03:08:17;;;;;;;13.77;11.90;;;20.10;76.30;;;;;;5097371;28;20040;-71
2021/08/12 03:10:43;;;;;;;14.27;11.90;;;20.10;75.80;;;;;;5096818;28;20070;-70
2021/08/12 03:13:11;;;;;;;18.15;12.25;;;20.10;75.70;;;;;;5097525;28;20129;-71
2021/08/12 03:15:38;;;;;;;13.63;11.57;;;20.10;75.70;;;;;;5097182;28;20047;-72
2021/08/12 03:18:05;;;;;;;14.10;12.60;;;20.10;75.70;;;;;;5097407;28;20050;-71
2021/08/12 03:20:31;;;;;;;14.63;12.35;;;20.10;75.70;;;;;;5097212;28;20039;-71
2021/08/12 03:22:58;;;;;;;14.88;12.45;;;20.10;75.60;;;;;;5096639;28;20454;-71
2021/08/12 03:25:24;;;;;;;18.20;13.40;;;20.10;75.60;;;;;;5096889;28;20051;-72
2021/08/12 03:27:51;;;;;;;14.85;12.15;;;20.10;75.50;;;;;;5096932;28;20047;-73
2021/08/12 03:30:18;;;;;;;15.50;13.25;;;20.10;75.60;;;;;;5095688;28;20520;-71
2021/08/12 03:32:44;;;;;;;17.45;13.50;;;20.00;75.50;;;;;;5077249;28;20040;-71
2021/08/12 03:35:10;;;;;;;14.32;12.38;;;20.00;75.60;;;;;;5076562;28;20046;-72
2021/08/12 03:37:36;;;;;;;15.98;13.52;;;20.00;75.60;;;;;;5076096;28;20123;-72
2021/08/12 03:40:03;;;;;;;16.77;13.88;;;20.00;75.60;;;;;;5076975;28;20068;-71
2021/08/12 03:42:29;;;;;;;18.27;13.75;;;20.00;75.60;;;;;;5076320;28;20422;-72
2021/08/12 03:44:55;;;;;;;16.80;13.27;;;20.00;75.70;;;;;;5076231;28;20047;-71
2021/08/12 03:47:20;;;;;;;16.63;12.85;;;20.00;75.70;;;;;;5076225;28;20078;-71
2021/08/12 03:49:46;;;;;;;18.88;14.48;;;20.00;75.70;;;;;;5075945;28;20036;-72
2021/08/12 03:52:12;;;;;;;16.45;12.80;;;20.00;76.30;;;;;;5076275;28;20094;-71
2021/08/12 03:54:38;;;;;;;17.77;13.93;;;20.00;75.70;;;;;;5075886;28;20428;-73
2021/08/12 03:57:05;;;;;;;16.75;14.38;;;20.00;75.70;;;;;;5076070;28;20052;-72
2021/08/12 03:59:31;;;;;;;17.85;14.52;;;20.00;75.70;;;;;;5076153;28;20051;-72
2021/08/12 04:01:59;;;;;;;17.65;15.15;;;20.00;75.60;;;;;;5085966;28;20106;-73
2021/08/12 04:04:26;;;;;;;17.33;14.48;;;20.00;75.70;;;;;;5076083;28;20049;-71
2021/08/12 04:06:52;;;;;;;18.98;14.32;;;20.00;75.70;;;;;;5076044;28;20056;-70
2021/08/12 04:09:18;;;;;;;18.08;15.30;;;20.00;75.70;;;;;;5075919;28;20040;-71
2021/08/12 04:11:44;;;;;;;18.88;14.90;;;20.00;75.80;;;;;;5075905;28;20047;-71
2021/08/12 04:14:09;;;;;;;17.88;13.70;;;20.00;75.70;;;;;;5075977;28;20047;-71
2021/08/12 04:16:36;;;;;;;17.48;14.02;;;20.00;75.80;;;;;;5076097;28;20048;-71
2021/08/12 04:19:02;;;;;;;19.85;14.38;;;20.00;75.80;;;;;;5076440;28;20049;-71
2021/08/12 04:21:28;;;;;;;17.27;13.73;;;20.00;75.80;;;;;;5075414;28;20051;-72
2021/08/12 04:23:54;;;;;;;19.13;14.10;;;20.00;76.50;;;;;;5075526;28;20044;-72
2021/08/12 04:26:26;;;;;;;19.02;15.32;;;20.00;75.90;;;;;;5075411;28;20033;-71
2021/08/12 04:28:56;;;;;;;15.52;13.13;;;20.00;75.80;;;;;;5075464;28;20075;-72
2021/08/12 04:31:23;;;;;;;18.35;14.88;;;19.90;75.80;;;;;;5075471;28;20498;-71
2021/08/12 04:33:48;;;;;;;17.55;15.23;;;20.00;75.80;;;;;;5093394;28;20351;-71
2021/08/12 04:36:15;;;;;;;18.63;14.85;;;20.00;75.90;;;;;;5095329;28;20040;-72
2021/08/12 04:38:40;;;;;;;17.30;14.07;;;20.00;75.90;;;;;;5095811;28;20044;-71
2021/08/12 04:41:06;;;;;;;17.02;14.27;;;20.00;75.90;;;;;;5095633;28;20118;-71
2021/08/12 04:43:32;;;;;;;19.58;14.88;;;20.00;75.90;;;;;;5095986;28;20051;-72
2021/08/12 04:46:02;;;;;;;17.20;14.00;;;20.00;75.90;;;;;;5095287;28;20131;-71
2021/08/12 04:48:28;;;;;;;19.75;14.45;;;19.90;76.00;;;;;;5095371;28;20043;-71
2021/08/12 04:50:54;;;;;;;18.38;14.93;;;20.00;76.00;;;;;;5095420;28;20122;-71
2021/08/12 04:53:20;;;;;;;18.23;13.68;;;19.90;75.90;;;;;;5095502;28;20051;-71
2021/08/12 04:55:46;;;;;;;18.67;14.30;;;20.00;76.00;;;;;;5095161;28;20048;-71
2021/08/12 04:58:11;;;;;;;17.67;14.70;;;20.00;76.00;;;;;;5095498;28;20036;-71
2021/08/12 05:00:37;;;;;;;17.10;14.48;;;19.90;76.00;;;;;;5095522;28;20532;-71
2021/08/12 05:03:03;;;;;;;16.95;14.15;;;19.90;76.00;;;;;;5079548;28;20032;-71
2021/08/12 05:05:29;;;;;;;17.35;13.73;;;19.90;76.00;;;;;;5085562;28;20045;-71
2021/08/12 05:07:55;;;;;;;20.42;13.82;;;19.90;76.00;;;;;;5095076;28;20040;-73
2021/08/12 05:10:21;;;;;;;18.58;14.38;;;20.00;76.10;;;;;;5095418;28;20036;-74
2021/08/12 05:12:51;;;;;;;21.13;14.82;;;20.00;76.20;;;;;;5096052;28;20388;-71
2021/08/12 05:15:17;;;;;;;18.25;13.90;;;20.00;76.30;;;;;;5095398;28;20327;-72
2021/08/12 05:17:43;;;;;;;19.05;14.23;;;20.00;76.30;;;;;;5095054;28;20047;-72
2021/08/12 05:20:10;;;;;;;17.33;13.18;;;20.00;76.30;;;;;;5095689;28;20040;-72
2021/08/12 05:22:36;;;;;;;19.73;13.40;;;20.00;76.40;;;;;;5095099;28;20101;-73
2021/08/12 05:25:04;;;;;;;18.75;14.13;;;20.00;76.40;;;;;;5075648;28;20037;-71
2021/08/12 05:27:30;;;;;;;19.77;14.93;;;20.00;76.50;;;;;;5075043;28;20048;-71
2021/08/12 05:29:56;;;;;;;19.17;14.57;;;20.00;76.50;;;;;;5075023;28;20211;-72
2021/08/12 05:32:22;;;;;;;17.05;13.55;;;20.00;76.70;;;;;;5075547;28;20135;-70
2021/08/12 05:34:48;;;;;;;20.65;13.77;;;20.00;76.70;;;;;;5078841;28;20048;-71
2021/08/12 05:37:13;;;;;;;19.25;14.35;;;20.10;76.70;;;;;;5078949;28;20048;-71
2021/08/12 05:39:39;;;;;;;20.15;15.10;;;20.10;76.80;;;;;;5079458;28;20041;-75
2021/08/12 05:42:05;;;;;;;18.95;14.27;;;20.10;76.90;;;;;;5078961;28;20324;-72
2021/08/12 05:44:31;;;;;;;18.48;14.52;;;20.10;77.00;;;;;;5078889;28;20446;-72
2021/08/12 05:46:57;;;;;;;18.00;14.13;;;20.10;77.00;;;;;;5078198;28;20110;-72
2021/08/12 05:49:24;;;;;;;19.50;13.95;;;20.10;77.00;;;;;;5079086;28;20071;-71
2021/08/12 05:51:53;;;;;;;18.67;15.07;;;20.10;77.00;;;;;;5079828;28;20040;-70
2021/08/12 05:54:19;;;;;;;17.23;13.68;;;20.10;76.90;;;;;;5098427;28;20032;-72
2021/08/12 05:56:46;;;;;;;23.17;14.73;;;20.10;76.90;;;;;;5098335;28;20127;-70
2021/08/12 05:59:12;;;;;;;19.70;14.40;;;20.20;77.00;;;;;;5099477;28;20418;-71
2021/08/12 06:01:38;;;;;;;18.23;14.05;;;20.20;77.00;;;;;;5098884;28;20450;-70
2021/08/12 06:04:04;;;;;;;18.60;12.88;;;20.20;77.00;;;;;;5098386;28;20104;-71
2021/08/12 06:06:30;;;;;;;16.88;13.50;;;20.20;77.00;;;;;;5098491;28;20036;-69
2021/08/12 06:08:56;;;;;;;20.58;15.20;;;20.30;77.00;;;;;;5098735;28;20036;-71
2021/08/12 06:11:22;;;;;;;18.83;14.10;;;20.20;77.00;;;;;;5098424;28;20050;-72
2021/08/12 06:13:48;;;;;;;17.23;14.38;;;20.30;77.10;;;;;;5098135;28;20040;-71
2021/08/12 06:16:14;;;;;;;15.45;13.02;;;20.30;77.10;;;;;;5098090;28;20335;-72
2021/08/12 06:18:40;;;;;;;20.02;14.48;;;20.30;77.10;;;;;;5098109;28;20078;-71
2021/08/12 06:21:06;;;;;;;19.75;14.55;;;20.30;77.10;;;;;;5098156;28;20347;-70
2021/08/12 06:23:34;;;;;;;22.40;15.23;;;20.40;77.20;;;;;;5094088;28;20044;-72
2021/08/12 06:26:01;;;;;;;18.63;14.88;;;20.40;77.20;;;;;;5097734;28;20036;-73
2021/08/12 06:28:29;;;;;;;17.40;14.63;;;20.30;77.10;;;;;;5097710;28;20081;-71
2021/08/12 06:30:55;;;;;;;18.83;13.88;;;20.40;77.20;;;;;;5098211;28;20403;-73
2021/08/12 06:33:21;;;;;;;17.50;13.40;;;20.40;77.10;;;;;;5098302;28;20071;-71
2021/08/12 06:35:47;;;;;;;18.23;13.05;;;20.40;77.10;;;;;;5098364;28;20328;-71
2021/08/12 06:38:13;;;;;;;18.50;14.60;;;20.40;77.00;;;;;;5097996;28;20078;-71
2021/08/12 06:40:38;;;;;;;17.75;15.07;;;20.40;76.90;;;;;;5097946;28;20044;-71
2021/08/12 06:43:04;;;;;;;18.42;13.85;;;20.40;76.90;;;;;;5098095;28;20358;-71
2021/08/12 06:45:30;;;;;;;20.52;14.38;;;20.40;76.80;;;;;;5097130;28;20120;-73
2021/08/12 06:47:57;;;;;;;18.58;14.75;;;20.40;76.70;;;;;;5097457;28;20343;-71
2021/08/12 06:50:24;;;;;;;20.50;15.32;;;20.40;76.70;;;;;;5097689;28;20109;-71
2021/08/12 06:52:49;;;;;;;20.02;15.40;;;20.50;76.60;;;;;;5080353;28;20068;-70
2021/08/12 06:55:16;;;;;;;20.20;16.73;;;20.50;76.60;;;;;;5111020;28;20466;-72
2021/08/12 06:57:41;;;;;;;20.88;16.30;;;20.50;76.60;;;;;;5090926;28;20048;-71
2021/08/12 07:00:10;;;;;;;19.98;16.83;;;20.40;76.40;;;;;;5088330;28;20115;-71
2021/08/12 07:02:45;;;;;;;20.52;16.05;;;20.40;76.30;;;;;;5077194;28;20113;-72
2021/08/12 07:05:11;;;;;;;19.10;16.48;;;20.40;76.30;;;;;;5085940;28;20048;-70
2021/08/12 07:07:45;;;;;;;19.42;17.25;;;20.40;77.00;;;;;;5078388;28;20047;-70
2021/08/12 07:10:12;;;;;;;21.77;17.40;;;20.40;76.40;;;;;;5076937;28;20037;-70
2021/08/12 07:12:38;;;;;;;18.42;16.42;;;20.40;76.50;;;;;;5077272;28;20143;-71
2021/08/12 07:15:05;;;;;;;23.35;17.00;;;20.40;76.70;;;;;;5077575;28;20044;-71
2021/08/12 07:17:35;;;;;;;26.27;18.80;;;20.40;76.70;;;;;;5076748;28;20056;-70
2021/08/12 07:20:01;;;;;;;20.25;17.50;;;20.40;76.80;;;;;;5076803;28;20041;-69
2021/08/12 07:22:26;;;;;;;21.92;16.92;;;20.40;76.90;;;;;;5084009;28;20047;-71
2021/08/12 07:24:53;;;;;;;24.73;16.23;;;20.50;77.00;;;;;;5078022;28;20068;-70
2021/08/12 07:27:18;;;;;;;23.90;16.48;;;20.50;76.90;;;;;;5087170;28;20071;-71
2021/08/12 07:29:45;;;;;;;21.15;15.80;;;20.50;76.90;;;;;;5092640;28;20032;-73
2021/08/12 07:32:11;;;;;;;28.15;16.65;;;20.60;76.90;;;;;;5093607;28;20029;-70
2021/08/12 07:34:37;;;;;;;29.70;15.90;;;20.60;76.90;;;;;;5077173;28;20059;-70
2021/08/12 07:37:05;;;;;;;26.95;14.02;;;20.60;76.80;;;;;;5075781;28;20072;-72
2021/08/12 07:39:31;;;;;;;19.42;14.57;;;20.70;76.90;;;;;;5076080;28;20075;-71
2021/08/12 07:41:57;;;;;;;22.30;16.65;;;20.70;76.80;;;;;;5076579;28;20447;-75
2021/08/12 07:44:22;;;;;;;24.08;15.80;;;20.70;76.80;;;;;;5079562;28;20051;-75
2021/08/12 07:46:48;;;;;;;23.73;16.70;;;20.80;76.70;;;;;;5096044;28;20085;-72
2021/08/12 07:49:14;;;;;;;22.65;15.90;;;20.80;76.80;;;;;;5096552;28;20052;-72
2021/08/12 07:51:40;;;;;;;23.40;16.92;;;20.90;76.60;;;;;;5096322;28;20451;-73
2021/08/12 07:54:06;;;;;;;26.63;14.95;;;21.00;76.30;;;;;;5096689;28;20078;-69
2021/08/12 07:56:32;;;;;;;18.67;13.38;;;21.00;76.30;;;;;;5094977;28;20083;-69
2021/08/12 07:58:58;;;;;;;16.25;11.73;;;20.90;76.40;;;;;;5089703;28;20051;-70
2021/08/12 08:01:24;;;;;;;16.15;11.90;;;20.90;76.50;;;;;;5077866;28;20040;-69
2021/08/12 08:03:51;;;;;;;17.38;10.30;;;20.90;76.50;;;;;;5076053;28;20040;-70
2021/08/12 08:06:16;;;;;;;15.13;11.15;;;20.90;76.60;;;;;;5058118;28;20506;-69
2021/08/12 08:08:42;;;;;;;15.80;11.02;;;21.00;76.60;;;;;;5075345;28;20116;-70
2021/08/12 08:11:08;;;;;;;13.88;11.05;;;21.00;76.60;;;;;;5076172;28;20051;-71
2021/08/12 08:13:34;;;;;;;14.70;10.20;;;21.00;76.50;;;;;;5075666;28;20048;-72
2021/08/12 08:16:00;;;;;;;14.65;9.88;;;21.00;76.50;;;;;;5075902;28;20078;-70
2021/08/12 08:18:26;;;;;;;14.82;9.07;;;21.00;76.50;;;;;;5075716;28;20037;-70
2021/08/12 08:20:53;;;;;;;12.63;8.82;;;21.10;76.70;;;;;;5078572;28;20032;-70
2021/08/12 08:23:18;;;;;;;13.18;8.40;;;21.10;76.80;;;;;;5096175;28;20065;-69
2021/08/12 08:25:45;;;;;;;11.65;8.15;;;21.10;76.80;;;;;;5095622;28;20123;-69
2021/08/12 08:28:10;;;;;;;11.15;7.78;;;21.10;76.80;;;;;;5096157;28;20040;-71
2021/08/12 08:30:37;;;;;;;11.48;7.50;;;21.10;76.80;;;;;;5096583;28;20043;-70
2021/08/12 08:33:04;;;;;;;10.50;7.18;;;21.10;76.80;;;;;;5095865;28;20118;-70
2021/08/12 08:35:30;;;;;;;9.20;6.47;;;21.10;76.80;;;;;;5096514;28;20102;-70
2021/08/12 08:37:57;;;;;;;7.53;6.10;;;21.20;76.90;;;;;;5095466;28;20063;-68
2021/08/12 08:40:24;;;;;;;10.60;6.80;;;21.20;76.90;;;;;;5095832;28;20043;-69
2021/08/12 08:42:50;;;;;;;7.50;6.32;;;21.20;76.90;;;;;;5095707;28;20105;-69
2021/08/12 08:45:26;;;;;;;9.65;6.22;;;21.20;76.90;;;;;;5095915;28;20035;-70
2021/08/12 08:47:53;;;;;;;10.63;6.72;;;21.20;76.90;;;;;;5096054;28;20471;-68
2021/08/12 08:50:21;;;;;;;7.30;5.85;;;21.20;76.90;;;;;;5095095;28;20123;-73
2021/08/12 08:52:48;;;;;;;9.93;6.90;;;21.30;77.00;;;;;;5095595;28;20127;-73
2021/08/12 08:55:23;;;;;;;22.52;9.73;;;21.30;76.80;;;;;;5094388;28;20062;-68
2021/08/12 08:57:51;;;;;;;11.48;9.10;;;21.30;76.70;;;;;;5095066;28;20054;-69
2021/08/12 09:00:18;;;;;;;13.18;7.78;;;21.30;76.80;;;;;;5095339;28;20107;-69
2021/08/12 09:02:45;;;;;;;8.98;7.00;;;21.30;76.90;;;;;;5091441;28;20117;-70
2021/08/12 09:05:11;;;;;;;9.43;6.70;;;21.30;76.90;;;;;;5075081;28;20036;-70
2021/08/12 09:07:38;;;;;;;11.93;6.28;;;21.30;77.00;;;;;;5074792;28;20052;-70
2021/08/12 09:10:04;;;;;;;8.05;6.43;;;21.30;77.00;;;;;;5074986;28;20052;-70
2021/08/12 09:12:31;;;;;;;10.23;6.32;;;21.40;77.10;;;;;;5082341;28;20048;-70
2021/08/12 09:15:06;;;;;;;11.05;6.07;;;21.40;77.10;;;;;;5087743;28;20044;-69
2021/08/12 09:17:32;;;;;;;9.50;5.50;;;21.40;77.10;;;;;;5074625;28;20036;-70
2021/08/12 09:20:18;;;;;;;9.15;5.70;;;21.40;77.10;;;;;;5075910;28;20052;-70
2021/08/12 09:22:49;;;;;;;11.20;6.32;;;21.40;77.20;;;;;;5074952;28;20044;-70
2021/08/12 09:25:17;;;;;;;6.82;4.95;;;21.40;77.20;;;;;;5075252;28;20412;-70
2021/08/12 09:27:43;;;;;;;10.43;5.72;;;21.50;77.20;;;;;;5074372;28;20436;-75
2021/08/12 09:30:14;;;;;;;10.60;5.70;;;21.40;77.10;;;;;;5074588;28;20377;-70
2021/08/12 09:32:45;;;;;;;15.07;7.22;;;21.50;77.10;;;;;;5084548;28;20036;-70
2021/08/12 09:35:12;;;;;;;13.23;8.70;;;21.50;77.80;;;;;;5095248;28;20064;-69
2021/08/12 09:37:38;;;;;;;12.40;9.15;;;21.60;76.40;;;;;;5094943;28;20429;-71
2021/08/12 09:40:04;;;;;;;14.63;8.43;;;21.60;75.30;;;;;;5094670;28;20106;-71
2021/08/12 09:42:57;;;;;;;13.95;7.28;;;21.60;75.40;;;;;;5094661;28;20044;-70
2021/08/12 09:45:26;;;;;;;9.77;6.15;;;21.60;75.60;;;;;;5095027;28;20114;-70
2021/08/12 09:47:52;;;;;;;14.13;6.65;;;21.60;75.70;;;;;;5095138;28;20053;-70
2021/08/12 09:50:32;;;;;;;12.10;6.15;;;21.60;75.80;;;;;;5094944;28;20036;-69
2021/08/12 09:52:58;;;;;;;10.10;6.85;;;21.60;75.80;;;;;;5094969;28;20051;-70
2021/08/12 09:55:24;;;;;;;8.45;6.13;;;21.60;75.80;;;;;;5094884;28;20067;-70
2021/08/12 09:58:06;;;;;;;8.82;5.93;;;21.60;75.80;;;;;;5094769;28;20048;-70
2021/08/12 10:00:35;;;;;;;8.43;5.88;;;21.60;75.80;;;;;;5094845;28;20039;-70
2021/08/12 10:03:17;;;;;;;12.77;6.47;;;21.60;75.80;;;;;;5082481;28;20444;-71
2021/08/12 10:05:43;;;;;;;7.60;5.30;;;21.70;75.70;;;;;;5074924;28;20119;-70
2021/08/12 10:08:09;;;;;;;12.73;6.20;;;21.70;75.70;;;;;;5074478;28;20068;-68
2021/08/12 10:10:35;;;;;;;13.05;6.07;;;21.70;75.60;;;;;;5074457;28;20056;-71
2021/08/12 10:13:01;;;;;;;11.70;6.00;;;21.70;75.80;;;;;;5074761;28;20044;-71
2021/08/12 10:15:33;;;;;;;10.07;6.18;;;21.70;75.80;;;;;;5074741;28;20051;-71
2021/08/12 10:18:02;;;;;;;6.53;4.93;;;21.70;75.70;;;;;;5074279;28;20036;-73
2021/08/12 10:20:31;;;;;;;14.23;5.93;;;21.70;75.70;;;;;;5076196;28;20062;-71
2021/08/12 10:22:59;;;;;;;10.75;5.07;;;21.80;75.50;;;;;;5077951;28;20491;-69
2021/08/12 10:25:26;;;;;;;5.57;4.53;;;21.80;75.40;;;;;;5077818;28;20162;-71
2021/08/12 10:27:58;;;;;;;7.78;4.88;;;21.80;75.20;;;;;;5078109;28;20059;-71
2021/08/12 10:30:27;;;;;;;7.53;4.47;;;21.80;75.20;;;;;;5078015;28;20058;-72
2021/08/12 10:33:01;;;;;;;8.48;4.70;;;21.80;75.10;;;;;;5087252;28;20108;-72
2021/08/12 10:35:32;;;;;;;8.15;4.88;;;21.90;74.90;;;;;;5083700;28;20115;-70
2021/08/12 10:37:59;;;;;;;8.82;5.18;;;21.90;74.90;;;;;;5085682;28;20094;-72
2021/08/12 10:40:27;;;;;;;10.15;4.95;;;21.80;74.80;;;;;;5081418;28;20048;-74
2021/08/12 10:42:55;;;;;;;9.07;4.40;;;21.90;74.80;;;;;;5080936;28;20060;-72
2021/08/12 10:45:23;;;;;;;8.75;3.90;;;21.80;74.70;;;;;;5097683;28;20070;-71
2021/08/12 10:47:54;;;;;;;5.07;3.88;;;21.80;74.70;;;;;;5097744;28;20116;-71
2021/08/12 10:50:26;;;;;;;44.10;23.55;;;21.90;74.80;;;;;;5097721;28;20089;-73
2021/08/12 10:53:07;;;;;;;17.63;10.47;;;21.90;75.70;;;;;;5097870;28;20044;-73
2021/08/12 10:55:53;;;;;;;32.63;13.27;;;21.90;73.40;;;;;;5093909;28;20381;-74
2021/08/12 10:58:22;;;;;;;18.50;9.90;;;21.90;70.40;;;;;;5079955;28;20051;-73
2021/08/12 11:00:53;;;;;;;16.48;8.57;;;22.00;70.30;;;;;;5097752;28;20040;-72
2021/08/12 11:03:33;;;;;;;13.20;7.55;;;22.00;69.40;;;;;;5097601;28;20064;-75
2021/08/12 11:06:09;;;;;;;10.38;6.95;;;22.10;69.20;;;;;;5098136;28;20109;-77
2021/08/12 11:08:54;;;;;;;14.68;7.70;;;22.10;68.70;;;;;;5096848;28;20040;-76
2021/08/12 11:11:22;;;;;;;10.07;7.28;;;22.10;68.00;;;;;;5097516;28;20054;-74
2021/08/12 11:13:50;;;;;;;16.60;7.60;;;22.20;67.60;;;;;;5097421;28;20032;-74
2021/08/12 11:16:17;;;;;;;15.60;8.32;;;22.20;68.30;;;;;;5085146;28;20032;-74
2021/08/12 11:18:59;;;;;;;13.55;7.82;;;22.10;68.40;;;;;;5077013;28;20036;-75
2021/08/12 11:21:31;;;;;;;11.98;6.50;;;22.10;68.80;;;;;;5077832;28;20048;-74
2021/08/12 11:24:00;;;;;;;11.10;6.75;;;22.20;68.70;;;;;;5076742;28;20044;-71
2021/08/12 11:26:46;;;;;;;11.23;6.90;;;22.20;69.10;;;;;;5076714;28;20372;-72
2021/08/12 11:29:36;;;;;;;12.30;6.70;;;22.20;69.00;;;;;;5080356;28;20103;-72
2021/08/12 11:32:10;;;;;;;10.90;6.53;;;22.20;68.70;;;;;;5096709;28;20067;-72
2021/08/12 11:34:45;;;;;;;12.77;5.88;;;22.20;68.70;;;;;;5096928;28;20032;-73
2021/08/12 11:37:15;;;;;;;8.95;5.72;;;22.20;69.00;;;;;;5096415;28;20131;-71
2021/08/12 11:39:54;;;;;;;7.70;5.80;;;22.20;69.10;;;;;;5096604;28;20115;-73
2021/08/12 11:42:24;;;;;;;22.20;6.78;;;22.20;69.30;;;;;;5096786;28;20078;-74
2021/08/12 11:44:53;;;;;;;11.20;5.10;;;22.20;69.20;;;;;;5096753;28;20350;-72
2021/08/12 11:47:20;;;;;;;13.15;5.70;;;22.10;69.40;;;;;;5096783;28;20032;-74
2021/08/12 11:49:47;;;;;;;13.70;6.20;;;22.10;69.80;;;;;;5096532;28;20054;-71
2021/08/12 11:52:27;;;;;;;10.73;5.05;;;22.20;69.80;;;;;;5096609;28;20040;-73
2021/08/12 11:55:11;;;;;;;8.50;5.10;;;22.10;69.90;;;;;;5096004;28;20134;-72
2021/08/12 11:57:45;;;;;;;14.25;5.22;;;22.10;70.40;;;;;;5085901;28;20448;-71
2021/08/12 12:00:21;;;;;;;8.43;6.20;;;22.10;70.50;;;;;;5076808;28;20047;-71
2021/08/12 12:02:51;;;;;;;8.43;5.40;;;22.10;69.80;;;;;;5085213;28;20036;-71
2021/08/12 12:05:22;;;;;;;9.85;5.40;;;22.10;69.70;;;;;;5096570;28;20052;-70
2021/08/12 12:07:53;;;;;;;7.28;5.10;;;22.10;70.20;;;;;;5096390;28;20131;-70
2021/08/12 12:10:29;;;;;;;8.75;5.07;;;22.10;70.50;;;;;;5078474;28;20032;-71
2021/08/12 12:13:11;;;;;;;7.82;5.10;;;22.00;70.60;;;;;;5096148;28;20065;-70
2021/08/12 12:15:39;;;;;;;7.93;4.70;;;22.00;70.50;;;;;;5096025;28;20058;-72
2021/08/12 12:18:05;;;;;;;11.65;4.65;;;22.00;69.50;;;;;;5096111;28;20089;-74
2021/08/12 12:20:32;;;;;;;8.30;4.50;;;22.00;69.70;;;;;;5096287;28;20044;-71
2021/08/12 12:23:02;;;;;;;5.97;4.03;;;22.10;70.20;;;;;;5096163;28;20056;-74
2021/08/12 12:25:30;;;;;;;9.23;4.35;;;22.10;70.50;;;;;;5096066;28;20040;-72
2021/08/12 12:27:58;;;;;;;8.00;4.60;;;22.10;70.70;;;;;;5096344;28;20067;-72
2021/08/12 12:30:26;;;;;;;5.15;3.65;;;22.10;68.70;;;;;;5095906;28;20132;-72
2021/08/12 12:32:58;;;;;;;8.57;3.55;;;22.20;66.50;;;;;;5086441;28;20127;-71
2021/08/12 12:35:25;;;;;;;4.27;3.30;;;22.20;67.10;;;;;;5075372;28;20036;-74
2021/08/12 12:37:52;;;;;;;6.60;3.67;;;22.20;67.10;;;;;;5075616;28;20418;-72